Time;durP1;ratioP1;P1;durP2;ratioP2;P2;SDS_P1;SDS_P2;PMS_P1;PMS_P2;Temp;Humidity;BMP_temperature;BMP_pressure;BME280_temperature;BME280_humidity;BME280_pressure;Samples;Min_cycle;Max_cycle;Signal;HPM_P1;HPM_P2
2021/06/17 00:02:07;;;;;;;9.20;7.10;;;23.10;99.90;;;;;;5013667;28;20051;-75
2021/06/17 00:04:33;;;;;;;9.93;6.10;;;23.10;99.90;;;;;;5014091;28;20025;-75
2021/06/17 00:07:00;;;;;;;9.27;6.43;;;23.10;99.90;;;;;;5013340;28;20041;-75
2021/06/17 00:09:25;;;;;;;11.57;7.30;;;23.10;99.90;;;;;;5011303;28;20019;-75
2021/06/17 00:11:51;;;;;;;10.93;6.78;;;23.00;99.90;;;;;;5011894;28;20041;-74
2021/06/17 00:14:17;;;;;;;8.07;6.95;;;22.90;99.90;;;;;;5015864;28;20014;-75
2021/06/17 00:16:43;;;;;;;7.00;6.20;;;23.00;99.90;;;;;;5015959;28;20042;-75
2021/06/17 00:19:09;;;;;;;7.53;6.55;;;22.90;99.90;;;;;;5017511;28;20033;-75
2021/06/17 00:21:35;;;;;;;8.43;6.80;;;22.90;99.90;;;;;;5014063;28;20054;-75
2021/06/17 00:24:00;;;;;;;11.18;7.28;;;22.90;99.90;;;;;;5007421;28;20034;-76
2021/06/17 00:26:26;;;;;;;7.47;6.78;;;22.90;99.90;;;;;;5016265;28;20041;-75
2021/06/17 00:28:52;;;;;;;13.75;6.95;;;22.80;99.90;;;;;;5014105;28;20045;-75
2021/06/17 00:31:18;;;;;;;9.93;7.43;;;22.90;99.90;;;;;;5014843;28;20030;-75
2021/06/17 00:33:43;;;;;;;9.23;7.82;;;22.90;99.90;;;;;;5013948;28;20086;-74
2021/06/17 00:36:09;;;;;;;13.52;8.68;;;22.80;99.90;;;;;;5016021;28;20033;-75
2021/06/17 00:38:35;;;;;;;8.82;7.80;;;22.80;99.90;;;;;;5029872;28;20021;-75
2021/06/17 00:41:00;;;;;;;10.38;7.65;;;22.80;99.90;;;;;;5002921;28;20030;-75
2021/06/17 00:43:26;;;;;;;11.93;8.63;;;22.80;99.90;;;;;;4994825;28;20502;-75
2021/06/17 00:45:53;;;;;;;10.13;7.90;;;22.70;99.90;;;;;;4999285;28;20030;-75
2021/06/17 00:48:19;;;;;;;9.67;7.97;;;22.80;99.90;;;;;;4998818;28;20026;-75
2021/06/17 00:50:47;;;;;;;11.73;7.25;;;22.80;99.90;;;;;;4997415;28;20034;-75
2021/06/17 00:53:15;;;;;;;11.88;7.82;;;22.70;99.90;;;;;;4999379;28;20054;-75
2021/06/17 00:55:44;;;;;;;9.10;8.23;;;22.70;99.90;;;;;;4997246;28;20383;-75
2021/06/17 00:58:10;;;;;;;12.50;8.85;;;22.60;99.90;;;;;;4987593;28;20018;-75
2021/06/17 01:00:37;;;;;;;15.63;9.68;;;22.60;99.90;;;;;;4995938;28;20019;-75
2021/06/17 01:03:03;;;;;;;13.68;9.10;;;22.70;99.90;;;;;;4986286;28;20049;-75
2021/06/17 01:05:29;;;;;;;12.10;9.32;;;22.60;99.90;;;;;;4989763;28;20029;-74
2021/06/17 01:08:04;;;;;;;11.10;8.95;;;22.60;99.90;;;;;;4997187;28;20129;-75
2021/06/17 01:10:59;;;;;;;11.70;9.43;;;22.60;99.90;;;;;;4995309;28;20097;-75
2021/06/17 01:13:33;;;;;;;12.13;8.90;;;22.50;99.90;;;;;;4981653;28;20034;-75
2021/06/17 01:16:21;;;;;;;11.57;8.82;;;22.50;99.90;;;;;;4996694;28;20034;-75
2021/06/17 01:18:54;;;;;;;10.90;8.88;;;22.50;99.90;;;;;;4992819;28;20030;-73
2021/06/17 01:21:42;;;;;;;14.25;9.00;;;22.50;99.90;;;;;;4981517;28;20030;-74
2021/06/17 01:24:39;;;;;;;12.00;9.57;;;22.50;99.90;;;;;;4998317;28;20042;-74
2021/06/17 01:27:20;;;;;;;;;;;22.50;99.90;;;;;;4994292;28;20065;-75
2021/06/17 01:29:50;;;;;;;11.85;9.40;;;22.40;99.90;;;;;;4991531;28;20016;-74
2021/06/17 01:32:18;;;;;;;16.65;10.32;;;22.40;99.90;;;;;;4995887;28;20080;-74
2021/06/17 01:34:45;;;;;;;;;;;22.40;99.90;;;;;;4992053;28;20026;-74
2021/06/17 01:37:13;;;;;;;11.70;9.30;;;22.40;99.90;;;;;;4989617;28;20000;-74
2021/06/17 01:39:40;;;;;;;16.00;9.20;;;22.30;99.90;;;;;;4982817;28;20026;-74
2021/06/17 01:42:08;;;;;;;11.85;9.43;;;22.30;99.90;;;;;;4995773;28;20018;-74
2021/06/17 01:44:35;;;;;;;14.18;9.40;;;22.30;99.90;;;;;;4994774;28;20031;-74
2021/06/17 01:47:03;;;;;;;11.98;9.85;;;22.20;99.90;;;;;;4993893;28;20395;-75
2021/06/17 01:49:29;;;;;;;9.27;8.13;;;22.20;99.90;;;;;;4992020;28;20027;-75
2021/06/17 01:51:57;;;;;;;9.57;8.40;;;22.20;99.90;;;;;;4989716;28;20023;-75
2021/06/17 01:54:26;;;;;;;13.55;8.25;;;22.20;99.90;;;;;;4995425;28;20026;-75
2021/06/17 01:56:56;;;;;;;9.85;8.63;;;22.20;99.90;;;;;;4985775;28;20480;-74
2021/06/17 01:59:24;;;;;;;19.33;10.38;;;22.20;99.90;;;;;;4987122;28;20467;-75
2021/06/17 02:01:53;;;;;;;10.38;9.20;;;22.20;99.90;;;;;;4991653;28;20089;-74
2021/06/17 02:04:20;;;;;;;12.05;9.80;;;22.20;99.90;;;;;;4994227;28;20444;-74
2021/06/17 02:06:46;;;;;;;19.17;11.02;;;22.30;99.90;;;;;;4991804;28;20519;-74
2021/06/17 02:09:13;;;;;;;14.32;9.43;;;22.30;99.90;;;;;;4994757;28;20383;-74
2021/06/17 02:11:39;;;;;;;19.48;11.85;;;22.40;99.90;;;;;;4995214;28;20030;-74
2021/06/17 02:14:08;;;;;;;14.35;10.18;;;22.40;99.90;;;;;;4988920;28;20034;-75
2021/06/17 02:16:35;;;;;;;12.15;10.80;;;22.40;99.90;;;;;;4991307;28;20085;-74
2021/06/17 02:19:02;;;;;;;11.98;10.65;;;22.40;99.90;;;;;;4995125;28;20049;-74
2021/06/17 02:21:31;;;;;;;13.40;10.27;;;22.40;99.90;;;;;;4993197;28;20405;-74
2021/06/17 02:23:59;;;;;;;17.80;11.50;;;22.30;99.90;;;;;;4977137;28;20376;-75
2021/06/17 02:26:26;;;;;;;18.23;11.35;;;22.30;99.90;;;;;;4993304;28;20038;-75
2021/06/17 02:28:54;;;;;;;14.30;10.65;;;22.30;99.90;;;;;;4994672;28;20506;-75
2021/06/17 02:31:24;;;;;;;15.10;11.65;;;22.30;99.90;;;;;;4993183;28;20120;-75
2021/06/17 02:33:50;;;;;;;15.18;10.80;;;22.20;99.90;;;;;;5003338;28;20145;-74
2021/06/17 02:36:22;;;;;;;14.15;10.65;;;22.20;99.90;;;;;;4992590;28;20053;-75
2021/06/17 02:38:49;;;;;;;13.00;10.23;;;22.20;99.90;;;;;;4993777;28;20045;-75
2021/06/17 02:41:17;;;;;;;12.43;10.30;;;22.20;99.90;;;;;;4993500;28;20039;-75
2021/06/17 02:43:47;;;;;;;16.25;11.07;;;22.20;99.90;;;;;;5001324;28;20039;-74
2021/06/17 02:46:14;;;;;;;14.38;10.45;;;22.20;99.90;;;;;;4983163;28;20423;-74
2021/06/17 02:48:40;;;;;;;11.93;10.73;;;22.20;99.90;;;;;;4994264;28;20602;-75
2021/06/17 02:51:05;;;;;;;14.73;11.52;;;22.20;99.90;;;;;;4994275;28;20043;-74
2021/06/17 02:53:31;;;;;;;15.70;11.80;;;22.20;99.90;;;;;;4991552;28;20038;-75
2021/06/17 02:55:58;;;;;;;19.13;12.73;;;22.20;99.90;;;;;;4988949;28;20031;-74
2021/06/17 02:58:49;;;;;;;17.20;11.90;;;22.20;99.90;;;;;;4980419;28;20046;-74
2021/06/17 03:01:49;;;;;;;13.32;11.32;;;22.30;99.90;;;;;;4974797;28;20289;-75
2021/06/17 03:04:22;;;;;;;14.45;10.68;;;22.30;99.90;;;;;;5006900;28;20030;-75
2021/06/17 03:06:51;;;;;;;17.85;11.45;;;22.30;99.90;;;;;;4990921;28;20503;-74
2021/06/17 03:09:25;;;;;;;15.52;10.98;;;22.40;99.90;;;;;;4994090;28;20367;-75
2021/06/17 03:11:54;;;;;;;15.18;10.68;;;22.60;99.90;;;;;;4991132;28;20030;-75
2021/06/17 03:17:20;;;;;;;15.60;11.07;;;22.90;99.90;;;;;;4992103;28;20131;-75
2021/06/17 03:19:50;;;;;;;15.18;11.57;;;23.00;99.90;;;;;;4983983;28;20030;-76
2021/06/17 03:22:18;;;;;;;16.92;10.93;;;23.10;99.90;;;;;;4992437;28;20065;-75
2021/06/17 03:24:48;;;;;;;12.82;10.48;;;23.20;99.90;;;;;;4987196;28;20034;-76
2021/06/17 03:27:15;;;;;;;15.18;10.93;;;23.30;99.90;;;;;;4987302;28;20069;-75
2021/06/17 03:29:45;;;;;;;18.60;10.90;;;23.40;99.90;;;;;;4994197;28;20023;-75
2021/06/17 03:32:12;;;;;;;13.75;9.82;;;23.40;99.90;;;;;;4993072;28;20030;-75
2021/06/17 03:34:41;;;;;;;14.25;9.73;;;23.40;99.90;;;;;;4987688;28;20026;-75
2021/06/17 03:37:07;;;;;;;14.35;9.90;;;23.50;99.90;;;;;;4990262;28;20026;-75
2021/06/17 03:39:33;;;;;;;12.27;9.13;;;23.60;99.90;;;;;;4992165;28;20041;-75
2021/06/17 03:42:00;;;;;;;12.98;9.65;;;23.60;99.90;;;;;;4991751;28;20137;-75
2021/06/17 03:44:29;;;;;;;16.85;10.43;;;23.70;99.90;;;;;;4992960;28;20027;-75
2021/06/17 03:46:57;;;;;;;11.90;9.30;;;23.80;99.90;;;;;;4992665;28;20026;-75
2021/06/17 03:49:24;;;;;;;13.75;9.63;;;23.80;99.90;;;;;;4993389;28;20027;-75
2021/06/17 03:51:50;;;;;;;12.15;9.18;;;23.80;99.90;;;;;;4992082;28;20029;-75
2021/06/17 03:54:23;;;;;;;13.32;9.45;;;23.80;99.90;;;;;;4991798;28;20026;-75
2021/06/17 03:57:01;;;;;;;12.77;9.02;;;23.80;99.90;;;;;;4984767;28;20026;-75
2021/06/17 03:59:30;;;;;;;13.32;8.60;;;23.80;99.90;;;;;;4991012;28;20031;-75
2021/06/17 04:01:56;;;;;;;14.18;8.90;;;23.80;99.90;;;;;;4992567;28;20045;-75
2021/06/17 04:04:22;;;;;;;12.48;9.30;;;23.80;99.90;;;;;;4992696;28;20462;-75
2021/06/17 04:06:53;;;;;;;20.35;9.48;;;23.80;99.90;;;;;;4984494;28;20051;-76
2021/06/17 04:09:27;;;;;;;15.93;9.07;;;23.80;99.90;;;;;;4989319;28;20026;-76
2021/06/17 04:11:57;;;;;;;13.05;8.25;;;23.80;99.90;;;;;;4993582;28;20034;-76
2021/06/17 04:14:25;;;;;;;11.40;9.35;;;23.80;99.90;;;;;;4992563;28;20022;-76
2021/06/17 04:16:52;;;;;;;12.82;9.65;;;23.80;99.90;;;;;;4990750;28;20143;-75
2021/06/17 04:19:26;;;;;;;13.27;9.55;;;23.70;99.90;;;;;;4989262;28;20174;-75
2021/06/17 04:21:56;;;;;;;14.38;8.95;;;23.70;99.90;;;;;;4993511;28;20038;-76
2021/06/17 04:24:23;;;;;;;14.48;9.43;;;23.80;99.90;;;;;;4989648;28;20022;-76
2021/06/17 04:26:52;;;;;;;14.35;8.85;;;23.80;99.90;;;;;;4990324;28;20062;-76
2021/06/17 04:29:18;;;;;;;12.93;10.15;;;23.80;99.90;;;;;;4991147;28;20061;-76
2021/06/17 04:31:45;;;;;;;16.23;10.15;;;23.70;99.90;;;;;;4991882;28;20034;-75
2021/06/17 04:34:11;;;;;;;13.15;9.27;;;23.70;99.90;;;;;;4989833;28;20069;-76
2021/06/17 04:36:38;;;;;;;14.73;10.73;;;23.70;99.90;;;;;;4993258;28;20062;-76
2021/06/17 04:39:05;;;;;;;11.35;10.15;;;23.70;99.90;;;;;;4991754;28;20172;-76
2021/06/17 04:41:30;;;;;;;14.38;10.93;;;23.70;99.90;;;;;;4985167;28;20085;-76
2021/06/17 04:43:56;;;;;;;17.80;13.00;;;23.70;99.90;;;;;;4991540;28;20060;-76
2021/06/17 04:46:23;;;;;;;18.48;12.75;;;23.80;99.90;;;;;;4992626;28;20029;-75
2021/06/17 04:48:50;;;;;;;;;;;23.70;99.90;;;;;;4991953;28;20407;-76
2021/06/17 04:51:16;;;;;;;21.42;14.05;;;23.80;99.90;;;;;;4993150;28;19972;-77
2021/06/17 04:53:42;;;;;;;18.88;13.18;;;23.80;99.90;;;;;;4991760;28;20037;-76
2021/06/17 04:56:08;;;;;;;19.83;14.00;;;23.80;99.90;;;;;;4992158;28;20101;-77
2021/06/17 04:58:35;;;;;;;19.30;13.98;;;23.80;99.90;;;;;;4992072;28;20466;-77
2021/06/17 05:01:05;;;;;;;20.67;14.68;;;23.80;99.90;;;;;;4998483;28;20110;-76
2021/06/17 05:03:31;;;;;;;23.45;14.45;;;23.80;99.90;;;;;;4995931;28;20403;-76
2021/06/17 05:05:58;;;;;;;20.33;14.45;;;23.90;99.90;;;;;;4988008;28;20024;-76
2021/06/17 05:10:53;;;;;;;28.15;14.88;;;23.90;99.90;;;;;;4995114;28;20113;-76
2021/06/17 05:13:24;;;;;;;17.58;14.57;;;23.80;99.90;;;;;;4993818;28;20014;-76
2021/06/17 05:15:54;;;;;;;19.05;13.77;;;23.90;99.90;;;;;;4994809;28;20084;-76
2021/06/17 05:18:22;;;;;;;17.83;13.60;;;24.00;99.90;;;;;;5003065;28;20538;-76
2021/06/17 05:20:49;;;;;;;19.75;14.77;;;24.00;99.90;;;;;;4994244;28;20022;-76
2021/06/17 05:23:18;;;;;;;23.90;14.90;;;24.00;99.90;;;;;;4995471;28;20026;-76
2021/06/17 05:25:45;;;;;;;24.55;15.55;;;24.10;99.90;;;;;;4997694;28;20034;-77
2021/06/17 05:28:17;;;;;;;23.50;14.95;;;24.20;99.90;;;;;;4997222;28;20145;-76
2021/06/17 05:30:46;;;;;;;22.63;16.55;;;24.20;99.90;;;;;;4996969;28;20076;-76
2021/06/17 05:33:12;;;;;;;18.77;14.25;;;24.30;99.90;;;;;;4994446;28;20026;-76
2021/06/17 05:35:38;;;;;;;23.17;14.57;;;24.40;99.90;;;;;;5010538;28;20026;-76
2021/06/17 05:38:04;;;;;;;20.20;15.02;;;24.50;99.90;;;;;;4996594;28;20018;-76
2021/06/17 05:40:30;;;;;;;21.93;17.03;;;24.60;99.90;;;;;;4990579;28;20447;-76
2021/06/17 05:42:56;;;;;;;19.05;14.30;;;24.60;99.90;;;;;;5014404;28;20049;-76
2021/06/17 05:45:21;;;;;;;24.40;15.13;;;24.70;99.90;;;;;;4994159;28;20442;-75
2021/06/17 05:47:47;;;;;;;21.98;13.55;;;24.80;99.90;;;;;;4997377;28;20023;-76
2021/06/17 05:50:13;;;;;;;24.95;15.85;;;24.80;99.90;;;;;;4997357;28;20097;-76
2021/06/17 05:52:39;;;;;;;19.85;14.93;;;24.90;99.90;;;;;;4996182;28;20146;-76
2021/06/17 05:55:05;;;;;;;24.48;15.02;;;25.00;99.90;;;;;;4995776;28;20018;-76
2021/06/17 05:57:31;;;;;;;25.33;15.93;;;25.00;99.90;;;;;;4995348;28;20128;-77
2021/06/17 05:59:57;;;;;;;20.65;14.90;;;25.00;99.90;;;;;;4994948;28;20030;-76
2021/06/17 06:02:25;;;;;;;18.42;13.77;;;25.10;99.90;;;;;;4994172;28;20121;-77
2021/06/17 06:04:52;;;;;;;25.20;14.35;;;25.30;99.90;;;;;;4994270;28;20283;-77
2021/06/17 06:07:19;;;;;;;26.27;14.30;;;25.70;99.90;;;;;;4992731;28;20044;-76
2021/06/17 06:09:45;;;;;;;21.27;13.80;;;26.60;99.20;;;;;;4992596;28;20022;-76
2021/06/17 06:12:11;;;;;;;34.10;13.15;;;27.40;98.10;;;;;;4992054;28;20036;-76
2021/06/17 06:14:37;;;;;;;16.43;12.60;;;27.80;97.70;;;;;;4994177;28;20036;-76
2021/06/17 06:17:03;;;;;;;16.02;12.85;;;27.80;97.50;;;;;;4995149;28;20105;-76
2021/06/17 06:19:30;;;;;;;14.82;12.30;;;28.40;96.80;;;;;;4993152;28;20058;-77
2021/06/17 06:21:56;;;;;;;23.63;12.75;;;29.40;95.60;;;;;;4993248;28;20145;-77
2021/06/17 06:24:22;;;;;;;19.85;12.35;;;29.00;95.60;;;;;;4994802;28;20104;-76
2021/06/17 06:26:48;;;;;;;18.73;12.98;;;28.30;96.30;;;;;;4994336;28;20539;-76
2021/06/17 06:29:14;;;;;;;16.27;11.95;;;27.60;96.80;;;;;;4993314;28;20487;-76
2021/06/17 06:31:39;;;;;;;16.00;11.05;;;27.10;97.20;;;;;;4993369;28;20018;-76
2021/06/17 06:34:05;;;;;;;16.48;11.40;;;26.70;97.90;;;;;;4994097;28;20461;-76
2021/06/17 06:36:31;;;;;;;15.75;12.40;;;26.40;98.20;;;;;;4994761;28;20030;-77
2021/06/17 06:38:56;;;;;;;15.30;11.82;;;26.20;98.30;;;;;;4994833;28;20506;-75
2021/06/17 06:41:22;;;;;;;20.50;12.27;;;26.10;98.30;;;;;;4993788;28;20045;-76
2021/06/17 06:43:47;;;;;;;19.00;13.25;;;26.00;98.60;;;;;;4993147;28;20391;-76
2021/06/17 06:46:13;;;;;;;15.40;12.35;;;25.90;98.60;;;;;;4999510;28;20039;-77
2021/06/17 06:48:39;;;;;;;15.80;12.90;;;25.80;98.70;;;;;;4990792;28;20033;-77
2021/06/17 06:51:04;;;;;;;21.35;13.57;;;25.80;98.80;;;;;;4990164;28;20019;-78
2021/06/17 06:53:30;;;;;;;17.70;12.02;;;25.70;99.00;;;;;;4990265;28;20030;-76
2021/06/17 06:55:56;;;;;;;19.35;11.65;;;25.70;99.10;;;;;;4990139;28;20026;-77
2021/06/17 06:58:21;;;;;;;14.40;10.05;;;25.70;98.80;;;;;;4990258;28;20506;-77
2021/06/17 07:00:47;;;;;;;20.17;10.93;;;25.70;98.10;;;;;;4992949;28;20034;-76
2021/06/17 07:03:13;;;;;;;13.95;10.63;;;25.80;98.30;;;;;;4992145;28;20026;-77
2021/06/17 07:05:39;;;;;;;14.52;9.43;;;26.00;98.50;;;;;;4991615;28;20064;-76
2021/06/17 07:08:09;;;;;;;18.77;8.70;;;26.20;97.70;;;;;;4987661;28;20488;-77
2021/06/17 07:10:41;;;;;;;17.65;8.20;;;26.30;97.80;;;;;;4990848;28;20045;-77
2021/06/17 07:13:06;;;;;;;11.93;7.45;;;26.40;97.50;;;;;;4993173;28;20058;-77
2021/06/17 07:15:32;;;;;;;12.95;7.35;;;26.70;96.70;;;;;;4990353;28;20027;-78
2021/06/17 07:17:57;;;;;;;13.32;7.43;;;27.20;96.30;;;;;;4988294;28;20088;-77
2021/06/17 07:20:23;;;;;;;7.90;6.82;;;27.30;96.00;;;;;;4994552;28;20022;-76
2021/06/17 07:22:54;;;;;;;9.00;7.28;;;27.40;95.80;;;;;;4992736;28;20128;-77
2021/06/17 07:25:19;;;;;;;11.38;6.55;;;27.50;95.70;;;;;;4991832;28;20029;-75
2021/06/17 07:27:45;;;;;;;15.73;6.40;;;28.90;95.10;;;;;;4990992;28;20027;-78
2021/06/17 07:30:12;;;;;;;9.30;5.07;;;30.10;93.60;;;;;;4992839;28;20467;-79
2021/06/17 07:32:37;;;;;;;10.32;5.43;;;30.90;93.00;;;;;;4993115;28;20031;-78
2021/06/17 07:35:03;;;;;;;6.57;4.65;;;31.60;92.10;;;;;;4993455;28;20384;-77
2021/06/17 07:37:29;;;;;;;9.30;4.45;;;31.70;91.80;;;;;;4992803;28;20037;-79
2021/06/17 07:39:55;;;;;;;7.22;5.53;;;31.80;91.60;;;;;;4993500;28;20030;-78
2021/06/17 07:42:20;;;;;;;14.23;3.63;;;31.80;91.60;;;;;;4993206;28;20197;-77
2021/06/17 07:44:47;;;;;;;10.55;5.05;;;31.50;91.90;;;;;;4992706;28;20392;-79
2021/06/17 07:47:13;;;;;;;;;;;31.40;92.00;;;;;;4993408;28;20057;-78
2021/06/17 07:49:38;;;;;;;7.83;4.67;;;30.90;92.20;;;;;;4989936;28;20657;-78
2021/06/17 07:52:04;;;;;;;10.45;3.70;;;30.60;92.60;;;;;;4989990;28;20019;-78
2021/06/17 07:54:30;;;;;;;6.07;3.75;;;30.30;93.00;;;;;;4991688;28;20030;-75
2021/06/17 07:56:57;;;;;;;21.88;4.22;;;30.30;93.30;;;;;;4989452;28;20030;-81
2021/06/17 07:59:23;;;;;;;9.20;3.03;;;30.40;93.00;;;;;;4988044;28;20080;-77
2021/06/17 08:01:50;;;;;;;10.43;3.17;;;30.40;93.10;;;;;;4993056;28;20479;-77
2021/06/17 08:04:17;;;;;;;14.43;3.10;;;30.50;93.20;;;;;;4990148;28;20026;-75
2021/06/17 08:06:43;;;;;;;10.77;2.92;;;30.40;93.10;;;;;;4990737;28;20047;-79
2021/06/17 08:09:09;;;;;;;10.90;2.97;;;30.40;93.40;;;;;;4993399;28;20487;-80
2021/06/17 08:11:37;;;;;;;11.47;3.17;;;30.60;93.20;;;;;;4993071;28;20034;-75
2021/06/17 08:14:02;;;;;;;7.97;3.13;;;30.80;93.20;;;;;;4991984;28;20034;-76
2021/06/17 08:16:28;;;;;;;9.73;3.13;;;30.70;93.20;;;;;;4992476;28;20037;-76
2021/06/17 08:18:55;;;;;;;8.47;2.40;;;30.80;92.70;;;;;;5008711;28;20042;-73
2021/06/17 08:21:23;;;;;;;6.63;3.20;;;31.10;92.70;;;;;;5007158;28;20073;-73
2021/06/17 08:23:49;;;;;;;6.75;2.90;;;31.10;92.50;;;;;;4991534;28;20038;-74
2021/06/17 08:26:15;;;;;;;5.57;2.33;;;31.20;92.40;;;;;;4992400;28;20045;-73
2021/06/17 08:28:40;;;;;;;10.57;2.53;;;31.20;92.40;;;;;;4993950;28;20105;-73
2021/06/17 08:31:06;;;;;;;9.50;2.77;;;31.30;92.20;;;;;;4992548;28;20034;-74
2021/06/17 08:33:36;;;;;;;9.50;2.50;;;31.50;91.90;;;;;;4993261;28;20090;-73
2021/06/17 08:36:03;;;;;;;12.82;2.83;;;31.60;92.10;;;;;;4996953;28;20312;-79
2021/06/17 08:38:29;;;;;;;12.00;3.55;;;31.70;92.20;;;;;;4998626;28;20081;-72
2021/06/17 08:40:55;;;;;;;6.43;2.58;;;32.00;91.80;;;;;;4995702;28;20054;-73
2021/06/17 08:43:22;;;;;;;7.20;2.23;;;32.30;91.60;;;;;;4995258;28;20065;-73
2021/06/17 08:45:48;;;;;;;22.27;3.60;;;32.40;92.00;;;;;;5009108;28;20038;-72
2021/06/17 08:48:15;;;;;;;11.80;2.37;;;32.10;91.90;;;;;;4994555;28;20034;-74
2021/06/17 08:50:40;;;;;;;17.00;2.80;;;31.60;92.80;;;;;;4996179;28;20154;-71
2021/06/17 08:53:06;;;;;;;6.83;2.40;;;31.30;93.20;;;;;;4994859;28;20022;-75
2021/06/17 08:55:34;;;;;;;8.13;2.67;;;30.30;93.10;;;;;;4995454;28;20454;-74
2021/06/17 08:58:00;;;;;;;11.98;2.50;;;29.30;93.90;;;;;;4995471;28;20022;-74
2021/06/17 09:00:34;;;;;;;16.88;2.83;;;28.80;94.40;;;;;;4995673;28;20086;-74
2021/06/17 09:03:05;;;;;;;13.25;2.35;;;28.90;95.10;;;;;;4995444;28;20033;-74
2021/06/17 09:05:35;;;;;;;6.72;2.10;;;29.10;94.70;;;;;;4996471;28;20038;-74
2021/06/17 09:08:01;;;;;;;6.50;2.60;;;29.10;94.70;;;;;;4995950;28;20045;-74
2021/06/17 09:10:28;;;;;;;11.50;2.50;;;29.10;94.60;;;;;;4996751;28;20101;-74
2021/06/17 09:12:56;;;;;;;10.63;2.55;;;29.10;94.50;;;;;;5010330;28;20038;-74
2021/06/17 09:15:32;;;;;;;7.93;2.65;;;29.10;94.70;;;;;;4994697;28;20038;-74
2021/06/17 09:18:32;;;;;;;6.80;2.05;;;29.30;94.70;;;;;;4996517;28;20025;-74
2021/06/17 09:21:09;;;;;;;4.43;2.35;;;29.90;94.40;;;;;;4985124;28;20035;-74
2021/06/17 09:23:44;;;;;;;5.65;2.13;;;30.30;93.90;;;;;;4993295;28;20033;-74
2021/06/17 09:26:19;;;;;;;4.80;2.17;;;30.40;93.40;;;;;;4987263;28;20030;-74
2021/06/17 09:29:03;;;;;;;5.95;1.77;;;30.30;92.80;;;;;;4993225;28;20022;-74
2021/06/17 09:31:44;;;;;;;8.25;2.08;;;30.10;93.00;;;;;;4991541;28;20441;-72
2021/06/17 09:34:11;;;;;;;11.88;2.90;;;30.00;93.10;;;;;;4989009;28;20026;-73
2021/06/17 09:36:39;;;;;;;7.93;2.70;;;29.90;93.40;;;;;;4996027;28;20042;-73
2021/06/17 09:39:09;;;;;;;6.20;2.05;;;29.40;94.10;;;;;;4995926;28;20038;-73
2021/06/17 09:41:39;;;;;;;4.07;2.00;;;29.20;94.30;;;;;;4993776;28;20033;-73
2021/06/17 09:44:26;;;;;;;2.70;2.10;;;29.00;94.50;;;;;;4994264;28;20053;-73
2021/06/17 09:47:24;;;;;;;5.32;2.85;;;29.10;94.20;;;;;;4995718;28;20045;-73
2021/06/17 09:49:51;;;;;;;5.97;2.00;;;29.10;94.40;;;;;;4994477;28;20065;-74
2021/06/17 09:52:18;;;;;;;6.50;2.63;;;29.00;94.90;;;;;;4996485;28;20023;-73
2021/06/17 09:54:45;;;;;;;2.17;2.03;;;28.90;95.50;;;;;;4995586;28;20034;-74
2021/06/17 09:57:16;;;;;;;1.90;1.80;;;28.80;95.00;;;;;;4996317;28;20041;-74
2021/06/17 09:59:50;;;;;;;3.47;2.40;;;28.80;95.10;;;;;;4995866;28;20154;-74
2021/06/17 10:02:22;;;;;;;8.18;2.83;;;28.90;95.00;;;;;;4976921;28;20038;-74
2021/06/17 10:04:48;;;;;;;2.63;2.42;;;29.10;95.30;;;;;;4991623;28;20561;-73
2021/06/17 10:07:17;;;;;;;7.07;2.70;;;29.20;94.80;;;;;;4995569;28;20030;-73
2021/06/17 10:09:43;;;;;;;3.80;3.15;;;29.40;94.60;;;;;;4994264;28;20372;-73
2021/06/17 10:12:09;;;;;;;8.80;2.72;;;29.40;94.60;;;;;;4995864;28;20041;-73
2021/06/17 10:14:36;;;;;;;6.93;2.72;;;29.40;94.80;;;;;;4995448;28;20018;-74
2021/06/17 10:17:03;;;;;;;5.73;2.47;;;29.70;95.00;;;;;;4995140;28;20034;-74
2021/06/17 10:19:32;;;;;;;10.10;2.72;;;30.60;94.60;;;;;;4995369;28;20287;-73
2021/06/17 10:21:58;;;;;;;7.07;2.70;;;31.60;93.20;;;;;;4994529;28;20042;-73
2021/06/17 10:24:26;;;;;;;;;;;32.50;92.60;;;;;;4995727;28;20088;-74
2021/06/17 10:26:52;;;;;;;9.93;3.17;;;33.00;91.60;;;;;;4994218;28;20428;-73
2021/06/17 10:29:27;;;;;;;8.15;2.83;;;33.30;91.30;;;;;;4995831;28;20034;-73
2021/06/17 10:31:55;;;;;;;5.50;2.90;;;33.40;91.80;;;;;;4992773;28;20117;-72
2021/06/17 10:34:23;;;;;;;7.40;2.85;;;33.50;90.90;;;;;;4984433;28;20037;-73
2021/06/17 10:37:08;;;;;;;7.38;2.65;;;33.40;91.10;;;;;;4990720;28;20030;-73
2021/06/17 10:39:50;;;;;;;5.45;3.05;;;33.10;91.10;;;;;;4990899;28;20037;-73
2021/06/17 10:42:24;;;;;;;11.63;3.17;;;33.00;91.30;;;;;;4994438;28;20037;-73
2021/06/17 10:44:54;;;;;;;3.50;2.67;;;33.10;91.40;;;;;;4993481;28;20034;-74
2021/06/17 10:47:45;;;;;;;7.75;2.05;;;33.30;91.00;;;;;;4994078;28;20031;-74
2021/06/17 10:50:28;;;;;;;6.22;2.53;;;33.80;90.00;;;;;;4976065;28;20085;-73
2021/06/17 10:53:21;;;;;;;4.55;2.13;;;34.00;89.80;;;;;;4988337;28;20022;-73
2021/06/17 10:56:01;;;;;;;5.95;2.45;;;34.20;87.70;;;;;;4994746;28;20030;-73
2021/06/17 10:58:45;;;;;;;7.60;2.13;;;34.10;87.60;;;;;;4984182;28;20077;-73
2021/06/17 11:01:31;;;;;;;3.72;2.30;;;33.90;88.90;;;;;;4983932;28;20048;-74
2021/06/17 11:04:07;;;;;;;3.08;2.45;;;33.60;88.90;;;;;;4981728;28;20118;-73
2021/06/17 11:07:07;;;;;;;4.73;2.53;;;33.30;89.70;;;;;;4994023;28;20479;-73
2021/06/17 11:09:50;;;;;;;10.02;2.78;;;32.90;90.40;;;;;;4983906;28;20193;-74
2021/06/17 11:12:19;;;;;;;5.20;2.40;;;32.70;91.30;;;;;;4988990;28;20022;-74
2021/06/17 11:14:49;;;;;;;5.43;3.03;;;32.80;90.50;;;;;;4992254;28;20430;-74
2021/06/17 11:17:29;;;;;;;4.82;2.47;;;33.00;90.70;;;;;;4993227;28;20022;-73
2021/06/17 11:19:56;;;;;;;10.25;3.13;;;33.10;90.80;;;;;;4992292;28;20065;-73
2021/06/17 11:22:42;;;;;;;6.63;3.05;;;33.20;90.50;;;;;;4993418;28;20026;-74
2021/06/17 11:25:12;;;;;;;7.05;2.67;;;33.30;90.40;;;;;;4992502;28;20495;-73
2021/06/17 11:27:53;;;;;;;5.28;3.08;;;33.20;90.20;;;;;;4991742;28;20125;-73
2021/06/17 11:30:19;;;;;;;10.63;3.17;;;33.30;90.00;;;;;;4991240;28;20026;-73
2021/06/17 11:32:45;;;;;;;8.60;2.97;;;33.10;89.90;;;;;;4992661;28;20072;-74
2021/06/17 11:35:22;;;;;;;7.07;3.17;;;32.90;90.30;;;;;;4994760;28;20034;-74
2021/06/17 11:37:49;;;;;;;7.72;3.15;;;32.80;90.50;;;;;;4993616;28;20104;-74
2021/06/17 11:40:17;;;;;;;6.72;3.20;;;32.80;90.00;;;;;;4994159;28;20028;-74
2021/06/17 11:42:43;;;;;;;7.43;2.80;;;32.70;90.10;;;;;;4993951;28;20527;-74
2021/06/17 11:45:10;;;;;;;4.23;2.70;;;32.80;90.00;;;;;;4989247;28;20055;-74
2021/06/17 11:47:49;;;;;;;9.85;3.15;;;32.60;90.30;;;;;;4993806;28;20026;-74
2021/06/17 11:50:15;;;;;;;6.50;3.15;;;32.70;90.60;;;;;;4995393;28;20037;-74
2021/06/17 11:52:40;;;;;;;4.17;3.10;;;33.00;90.20;;;;;;4994428;28;20419;-73
2021/06/17 11:55:08;;;;;;;11.77;3.40;;;33.20;90.00;;;;;;4995223;28;20121;-74
2021/06/17 11:57:40;;;;;;;17.77;3.60;;;33.40;89.00;;;;;;4993794;28;20026;-73
2021/06/17 12:00:09;;;;;;;5.68;3.00;;;33.40;88.80;;;;;;4997281;28;20417;-72
2021/06/17 12:02:36;;;;;;;7.95;2.72;;;33.20;88.80;;;;;;4995209;28;20482;-75
2021/06/17 12:07:38;;;;;;;6.30;2.75;;;33.10;89.90;;;;;;4990011;28;20061;-74
2021/06/17 12:10:35;;;;;;;3.75;2.05;;;33.30;87.90;;;;;;4996280;28;20034;-74
2021/06/17 12:13:03;;;;;;;7.20;1.85;;;33.50;85.70;;;;;;5020544;28;20537;-73
2021/06/17 12:15:35;;;;;;;9.13;2.47;;;33.60;86.80;;;;;;5005219;28;20070;-72
2021/06/17 12:18:08;;;;;;;6.88;2.80;;;33.60;86.50;;;;;;5015378;28;20022;-74
2021/06/17 12:20:36;;;;;;;4.68;2.28;;;33.70;86.60;;;;;;5017672;28;20023;-72
2021/06/17 12:23:02;;;;;;;6.97;1.80;;;33.80;86.40;;;;;;5018748;28;20090;-75
2021/06/17 12:25:35;;;;;;;17.20;2.13;;;33.80;86.10;;;;;;5018824;28;20019;-74
2021/06/17 12:28:03;;;;;;;9.52;1.80;;;33.80;85.50;;;;;;5018826;28;20045;-74
2021/06/17 12:30:33;;;;;;;5.25;2.20;;;33.80;85.80;;;;;;5018003;28;20019;-73
2021/06/17 12:33:20;;;;;;;10.45;2.13;;;33.60;85.60;;;;;;5017897;28;20026;-73
2021/06/17 12:35:55;;;;;;;6.88;2.20;;;33.60;85.70;;;;;;5013351;28;20041;-73
2021/06/17 12:38:37;;;;;;;8.32;3.10;;;33.70;86.40;;;;;;5017497;28;20089;-74
2021/06/17 12:41:18;;;;;;;2.25;1.90;;;33.60;87.60;;;;;;5018294;28;20049;-73
2021/06/17 12:43:46;;;;;;;9.25;2.47;;;33.60;87.50;;;;;;5015719;28;20023;-74
2021/06/17 12:46:13;;;;;;;17.13;2.25;;;33.60;87.90;;;;;;5016282;28;20030;-76
2021/06/17 12:54:03;;;;;;;4.90;2.20;;;33.00;89.60;;;;;;5001605;28;20065;-73
2021/06/17 12:56:30;;;;;;;3.33;1.88;;;32.90;89.00;;;;;;5009985;28;20698;-72
2021/06/17 12:58:56;;;;;;;5.90;2.30;;;32.90;88.50;;;;;;5009517;28;20022;-72
2021/06/17 13:01:23;;;;;;;3.93;2.17;;;33.00;88.60;;;;;;5011772;28;20027;-72
2021/06/17 13:03:53;;;;;;;3.70;1.70;;;33.00;88.80;;;;;;5010394;28;20033;-72